Time;durP1;ratioP1;P1;durP2;ratioP2;P2;SDS_P1;SDS_P2;PMS_P1;PMS_P2;Temp;Humidity;BMP_temperature;BMP_pressure;BME280_temperature;BME280_humidity;BME280_pressure;Samples;Min_cycle;Max_cycle;Signal;HPM_P1;HPM_P2
2021/05/22 00:00:15;;;;;;;7.43;2.88;;;;;;;;;;4990883;28;20046;-81
2021/05/22 00:02:42;;;;;;;6.40;2.47;;;;;;;;;;4989123;28;20085;-81
2021/05/22 00:05:10;;;;;;;7.45;2.70;;;;;;;;;;4985267;28;20077;-81
2021/05/22 00:07:37;;;;;;;5.90;2.58;;;;;;;;;;4989293;28;20078;-81
2021/05/22 00:10:11;;;;;;;13.60;2.63;;;;;;;;;;4990118;28;20051;-81
2021/05/22 00:12:45;;;;;;;9.73;2.83;;;;;;;;;;4986873;28;20078;-84
2021/05/22 00:15:15;;;;;;;8.68;2.95;;;;;;;;;;4989866;28;20104;-84
2021/05/22 00:17:42;;;;;;;4.45;2.53;;;;;;;;;;4987072;28;20102;-84
2021/05/22 00:20:10;;;;;;;8.05;2.83;;;;;;;;;;5006552;28;20507;-83
2021/05/22 00:22:37;;;;;;;11.80;3.33;;;;;;;;;;4990586;28;20200;-84
2021/05/22 00:25:05;;;;;;;10.88;3.00;;;;;;;;;;4990237;28;20050;-84
2021/05/22 00:27:32;;;;;;;11.70;3.40;;;;;;;;;;4990327;28;20085;-84
2021/05/22 00:29:59;;;;;;;10.57;3.38;;;;;;;;;;4998826;28;20125;-84
2021/05/22 00:32:26;;;;;;;8.93;2.92;;;;;;;;;;5004403;28;20046;-84
2021/05/22 00:34:54;;;;;;;7.93;2.92;;;;;;;;;;4996125;28;20054;-84
2021/05/22 00:37:22;;;;;;;7.00;3.22;;;;;;;;;;4989240;28;20082;-84
2021/05/22 00:39:49;;;;;;;7.30;2.95;;;;;;;;;;4990954;28;20742;-84
2021/05/22 00:42:16;;;;;;;13.95;3.05;;;;;;;;;;4991125;28;20054;-84
2021/05/22 00:45:02;;;;;;;11.40;3.30;;;;;;;;;;4989598;28;20124;-84
2021/05/22 00:47:30;;;;;;;12.57;3.45;;;;;;;;;;4991528;28;20559;-84
2021/05/22 00:49:57;;;;;;;12.80;3.30;;;;;;;;;;4988218;28;20160;-85
2021/05/22 00:52:24;;;;;;;8.05;3.25;;;;;;;;;;4984972;28;20109;-85
2021/05/22 00:54:52;;;;;;;12.85;3.35;;;;;;;;;;4987633;28;20050;-84
2021/05/22 00:57:19;;;;;;;7.72;3.17;;;;;;;;;;4990028;28;20046;-84
2021/05/22 00:59:46;;;;;;;11.10;3.10;;;;;;;;;;4991422;28;20050;-83
2021/05/22 01:02:20;;;;;;;8.73;2.80;;;;;;;;;;4989803;28;20081;-84
2021/05/22 01:04:47;;;;;;;12.38;3.15;;;;;;;;;;4989869;28;20050;-84
2021/05/22 01:07:15;;;;;;;5.68;3.13;;;;;;;;;;4989341;28;20046;-84
2021/05/22 01:09:42;;;;;;;9.50;3.70;;;;;;;;;;4992168;28;20054;-84
2021/05/22 01:12:10;;;;;;;14.35;3.60;;;;;;;;;;4990606;28;20123;-84
2021/05/22 01:14:45;;;;;;;8.82;3.17;;;;;;;;;;4993431;28;20058;-84
2021/05/22 01:17:13;;;;;;;10.77;2.97;;;;;;;;;;4993832;28;20125;-82
2021/05/22 01:19:42;;;;;;;11.73;3.58;;;;;;;;;;4993246;28;20051;-81
2021/05/22 01:22:17;;;;;;;14.35;3.58;;;;;;;;;;4994354;28;20470;-82
2021/05/22 01:24:49;;;;;;;6.07;3.08;;;;;;;;;;4993308;28;20558;-81
2021/05/22 01:27:17;;;;;;;10.55;3.63;;;;;;;;;;4993438;28;20136;-81
2021/05/22 01:29:45;;;;;;;11.57;3.70;;;;;;;;;;4993284;28;20051;-81
2021/05/22 01:32:12;;;;;;;9.52;3.67;;;;;;;;;;4993332;28;20521;-82
2021/05/22 01:34:40;;;;;;;9.10;3.58;;;;;;;;;;4993517;28;20054;-82
2021/05/22 01:37:07;;;;;;;14.50;3.97;;;;;;;;;;4992718;28;20081;-82
2021/05/22 01:39:34;;;;;;;23.05;3.97;;;;;;;;;;4993486;28;20081;-82
2021/05/22 01:42:06;;;;;;;11.50;3.60;;;;;;;;;;4993874;28;20074;-82
2021/05/22 01:44:35;;;;;;;11.20;3.72;;;;;;;;;;4993317;28;20145;-82
2021/05/22 01:47:04;;;;;;;10.85;3.55;;;;;;;;;;4993307;28;20116;-81
2021/05/22 01:49:33;;;;;;;9.82;3.97;;;;;;;;;;4992728;28;20101;-81
2021/05/22 01:52:04;;;;;;;10.73;4.15;;;;;;;;;;5002923;28;20046;-81
2021/05/22 01:54:32;;;;;;;14.82;3.88;;;;;;;;;;4993298;28;20046;-82
2021/05/22 01:57:00;;;;;;;7.60;3.63;;;;;;;;;;4994002;28;20050;-82
2021/05/22 01:59:28;;;;;;;9.35;3.85;;;;;;;;;;4993741;28;20108;-81
2021/05/22 02:01:56;;;;;;;13.27;2.97;;;;;;;;;;4993803;28;20075;-81
2021/05/22 02:04:28;;;;;;;9.23;3.80;;;;;;;;;;4985744;28;20085;-82
2021/05/22 02:06:56;;;;;;;11.75;3.85;;;;;;;;;;4992882;28;20042;-81
2021/05/22 02:09:24;;;;;;;12.27;3.67;;;;;;;;;;4993279;28;20093;-81
2021/05/22 02:11:55;;;;;;;17.52;3.88;;;;;;;;;;4993598;28;20062;-84
2021/05/22 02:14:30;;;;;;;9.07;3.42;;;;;;;;;;4993813;28;20085;-84
2021/05/22 02:16:58;;;;;;;13.07;4.43;;;;;;;;;;4993332;28;20105;-83
2021/05/22 02:19:26;;;;;;;10.02;3.88;;;;;;;;;;4992833;28;20046;-84
2021/05/22 02:21:54;;;;;;;8.90;3.72;;;;;;;;;;4993655;28;20129;-85
2021/05/22 02:24:24;;;;;;;11.88;3.72;;;;;;;;;;4993361;28;20057;-84
2021/05/22 02:26:58;;;;;;;14.43;4.93;;;;;;;;;;4993187;28;20055;-85
2021/05/22 02:29:27;;;;;;;15.18;4.28;;;;;;;;;;4992886;28;20054;-84
2021/05/22 02:31:55;;;;;;;9.85;4.13;;;;;;;;;;4993048;28;20081;-85
2021/05/22 02:34:26;;;;;;;11.07;4.45;;;;;;;;;;4991949;28;20439;-85
2021/05/22 02:36:54;;;;;;;10.90;4.05;;;;;;;;;;4994494;28;20461;-85
2021/05/22 02:39:22;;;;;;;14.18;4.82;;;;;;;;;;4992961;28;20462;-84
2021/05/22 02:41:51;;;;;;;11.63;4.65;;;;;;;;;;4994380;28;20082;-84
2021/05/22 02:44:19;;;;;;;14.20;3.80;;;;;;;;;;4993555;28;20572;-85
2021/05/22 02:46:49;;;;;;;10.63;3.97;;;;;;;;;;4992755;28;20046;-85
2021/05/22 02:49:18;;;;;;;10.02;4.13;;;;;;;;;;4993238;28;20062;-85
2021/05/22 02:51:48;;;;;;;8.48;3.20;;;;;;;;;;4992538;28;20050;-85
2021/05/22 02:54:19;;;;;;;7.70;3.97;;;;;;;;;;4994046;28;20087;-85
2021/05/22 02:56:46;;;;;;;5.97;3.65;;;;;;;;;;4992842;28;20503;-85
2021/05/22 02:59:15;;;;;;;9.40;3.58;;;;;;;;;;4992835;28;20085;-84
2021/05/22 03:01:42;;;;;;;11.70;3.65;;;;;;;;;;4992866;28;20186;-84
2021/05/22 03:04:10;;;;;;;8.93;3.88;;;;;;;;;;4987347;28;20046;-84
2021/05/22 03:06:38;;;;;;;14.65;3.85;;;;;;;;;;4991741;28;20081;-84
2021/05/22 03:09:05;;;;;;;9.15;3.83;;;;;;;;;;4990954;28;20050;-84
2021/05/22 03:11:32;;;;;;;7.75;2.88;;;;;;;;;;4984462;28;20116;-85
2021/05/22 03:14:00;;;;;;;9.88;2.97;;;;;;;;;;4984458;28;20074;-84
2021/05/22 03:16:33;;;;;;;7.53;3.30;;;;;;;;;;4992410;28;20144;-84
2021/05/22 03:19:00;;;;;;;12.07;4.03;;;;;;;;;;4990917;28;20050;-85
2021/05/22 03:21:27;;;;;;;12.93;3.83;;;;;;;;;;4991480;28;20050;-85
2021/05/22 03:23:55;;;;;;;12.35;4.07;;;;;;;;;;4991261;28;20054;-85
2021/05/22 03:26:22;;;;;;;18.77;3.88;;;;;;;;;;4991608;28;20068;-85
2021/05/22 03:28:53;;;;;;;7.25;3.30;;;;;;;;;;4991395;28;20062;-86
2021/05/22 03:31:21;;;;;;;9.85;3.92;;;;;;;;;;4990654;28;20543;-85
2021/05/22 03:33:48;;;;;;;8.75;3.88;;;;;;;;;;4983308;28;20063;-85
2021/05/22 03:36:15;;;;;;;17.30;3.83;;;;;;;;;;4990372;28;20046;-85
2021/05/22 03:38:43;;;;;;;9.85;3.63;;;;;;;;;;5001776;28;20227;-85
2021/05/22 03:41:11;;;;;;;9.65;3.70;;;;;;;;;;4991606;28;20081;-85
2021/05/22 03:43:39;;;;;;;8.55;3.88;;;;;;;;;;4990711;28;20053;-86
2021/05/22 03:46:06;;;;;;;6.70;3.45;;;;;;;;;;4990551;28;20058;-84
2021/05/22 03:48:33;;;;;;;9.43;3.55;;;;;;;;;;4990320;28;20331;-84
2021/05/22 03:51:00;;;;;;;10.82;3.90;;;;;;;;;;4991547;28;20042;-84
2021/05/22 03:53:31;;;;;;;9.18;3.67;;;;;;;;;;4989877;28;20584;-84
2021/05/22 03:55:58;;;;;;;14.55;4.10;;;;;;;;;;4995857;28;20073;-84
2021/05/22 03:58:25;;;;;;;11.57;5.00;;;;;;;;;;4990898;28;20537;-84
2021/05/22 04:00:52;;;;;;;12.68;4.20;;;;;;;;;;4989974;28;20058;-85
2021/05/22 04:03:20;;;;;;;16.40;4.25;;;;;;;;;;4990603;28;20447;-85
2021/05/22 04:05:47;;;;;;;9.93;3.92;;;;;;;;;;4988887;28;20108;-84
2021/05/22 04:08:16;;;;;;;12.60;3.50;;;;;;;;;;4989493;28;20148;-84
2021/05/22 04:10:44;;;;;;;19.40;4.60;;;;;;;;;;4991141;28;20073;-85
2021/05/22 04:13:13;;;;;;;10.40;3.92;;;;;;;;;;4989450;28;20046;-84
2021/05/22 04:15:40;;;;;;;14.52;5.00;;;;;;;;;;4988740;28;20050;-84
2021/05/22 04:18:09;;;;;;;11.48;3.60;;;;;;;;;;4989465;28;20141;-85
2021/05/22 04:20:36;;;;;;;7.85;3.08;;;;;;;;;;4989694;28;20066;-84
2021/05/22 04:23:04;;;;;;;8.18;4.10;;;;;;;;;;4988617;28;20086;-84
2021/05/22 04:25:31;;;;;;;10.70;3.65;;;;;;;;;;4989643;28;20058;-84
2021/05/22 04:27:59;;;;;;;7.70;3.40;;;;;;;;;;4990308;28;20089;-84
2021/05/22 04:30:27;;;;;;;13.40;4.00;;;;;;;;;;4989778;28;20476;-84
2021/05/22 04:32:56;;;;;;;11.35;3.35;;;;;;;;;;5006635;28;20066;-84
2021/05/22 04:35:24;;;;;;;13.73;3.75;;;;;;;;;;4990061;28;20170;-84
2021/05/22 04:37:51;;;;;;;11.65;2.90;;;;;;;;;;4992951;28;20038;-84
2021/05/22 04:40:18;;;;;;;7.05;2.75;;;;;;;;;;5001924;28;20766;-85
2021/05/22 04:42:46;;;;;;;7.70;2.88;;;;;;;;;;5006614;28;20876;-84
2021/05/22 04:45:14;;;;;;;8.60;3.10;;;;;;;;;;4990012;28;20090;-84
2021/05/22 04:47:41;;;;;;;6.82;2.92;;;;;;;;;;4988438;28;20050;-84
2021/05/22 04:50:09;;;;;;;6.07;2.85;;;;;;;;;;4988149;28;20050;-84
2021/05/22 04:52:39;;;;;;;14.73;2.53;;;;;;;;;;4988837;28;20086;-84
2021/05/22 04:55:07;;;;;;;7.28;2.50;;;;;;;;;;5004671;28;20051;-84
2021/05/22 04:57:35;;;;;;;12.88;3.20;;;;;;;;;;5004566;28;20046;-84
2021/05/22 05:00:04;;;;;;;8.32;3.22;;;;;;;;;;4990228;28;20042;-84
2021/05/22 05:02:31;;;;;;;6.70;2.53;;;;;;;;;;4988135;28;20743;-84
2021/05/22 05:04:58;;;;;;;7.38;2.50;;;;;;;;;;4989260;28;20054;-84
2021/05/22 05:07:25;;;;;;;5.30;2.40;;;;;;;;;;4987659;28;20055;-84
2021/05/22 05:09:53;;;;;;;10.23;2.80;;;;;;;;;;4990257;28;20054;-84
2021/05/22 05:12:21;;;;;;;5.00;2.38;;;;;;;;;;4987550;28;20050;-84
2021/05/22 05:14:48;;;;;;;8.30;2.50;;;;;;;;;;4989497;28;20054;-84
2021/05/22 05:17:15;;;;;;;7.25;2.50;;;;;;;;;;4987368;28;20051;-84
2021/05/22 05:19:43;;;;;;;7.22;1.77;;;;;;;;;;4987138;28;20074;-83
2021/05/22 05:22:10;;;;;;;7.30;2.50;;;;;;;;;;4984650;28;20086;-83
2021/05/22 05:24:37;;;;;;;11.77;1.95;;;;;;;;;;4984207;28;20141;-83
2021/05/22 05:27:04;;;;;;;8.35;2.67;;;;;;;;;;4986725;28;20054;-83
2021/05/22 05:29:32;;;;;;;14.20;2.88;;;;;;;;;;4984169;28;20546;-83
2021/05/22 05:31:59;;;;;;;4.88;2.17;;;;;;;;;;4984456;28;20054;-83
2021/05/22 05:34:26;;;;;;;11.65;3.90;;;;;;;;;;4983984;28;20112;-82
2021/05/22 05:36:53;;;;;;;7.32;1.95;;;;;;;;;;4983037;28;20105;-81
2021/05/22 05:39:23;;;;;;;6.20;2.13;;;;;;;;;;4986307;28;20050;-82
2021/05/22 05:41:51;;;;;;;7.43;2.40;;;;;;;;;;4989153;28;20050;-83
2021/05/22 05:44:20;;;;;;;7.78;2.22;;;;;;;;;;4983120;28;20331;-83
2021/05/22 05:46:47;;;;;;;7.63;1.73;;;;;;;;;;4986170;28;20088;-83
2021/05/22 05:49:16;;;;;;;6.55;1.70;;;;;;;;;;4989660;28;20507;-85
2021/05/22 05:51:43;;;;;;;7.10;2.13;;;;;;;;;;4984687;28;20047;-86
2021/05/22 05:54:15;;;;;;;7.18;1.88;;;;;;;;;;4999477;28;20484;-83
2021/05/22 05:56:43;;;;;;;8.50;1.90;;;;;;;;;;4969861;28;20070;-83
2021/05/22 05:59:10;;;;;;;4.90;1.80;;;;;;;;;;4989691;28;20050;-86
2021/05/22 06:01:38;;;;;;;7.07;1.65;;;;;;;;;;4991396;28;20137;-79
2021/05/22 06:04:05;;;;;;;8.20;1.95;;;;;;;;;;4982309;28;20085;-79
2021/05/22 06:06:33;;;;;;;11.48;2.08;;;;;;;;;;4989109;28;21077;-79
2021/05/22 06:09:02;;;;;;;6.45;1.60;;;;;;;;;;4995159;28;20146;-81
2021/05/22 06:11:30;;;;;;;9.63;1.80;;;;;;;;;;4990485;28;20105;-78
2021/05/22 06:14:01;;;;;;;4.05;1.60;;;;;;;;;;4995279;28;20078;-80
2021/05/22 06:16:35;;;;;;;18.83;2.42;;;;;;;;;;4986535;28;20050;-81
2021/05/22 06:19:03;;;;;;;8.95;1.58;;;;;;;;;;4988652;28;20124;-81
2021/05/22 06:21:34;;;;;;;5.43;1.30;;;;;;;;;;4987370;28;20153;-80
2021/05/22 06:24:01;;;;;;;4.13;1.30;;;;;;;;;;4987792;28;20046;-79
2021/05/22 06:26:28;;;;;;;5.65;1.83;;;;;;;;;;4988469;28;20128;-80
2021/05/22 06:28:56;;;;;;;10.70;1.42;;;;;;;;;;4986367;28;20066;-78
2021/05/22 06:31:23;;;;;;;7.55;1.95;;;;;;;;;;4985978;28;20181;-77
2021/05/22 06:33:50;;;;;;;5.93;2.00;;;;;;;;;;4985120;28;20085;-79
2021/05/22 06:36:17;;;;;;;5.57;1.55;;;;;;;;;;4984863;28;20129;-80
2021/05/22 06:38:44;;;;;;;8.95;1.75;;;;;;;;;;4985616;28;20137;-78
2021/05/22 06:41:11;;;;;;;7.47;1.45;;;;;;;;;;4986453;28;20050;-86
2021/05/22 06:43:40;;;;;;;5.25;1.33;;;;;;;;;;4988846;28;20046;-85
2021/05/22 06:46:46;;;;;;;9.63;1.27;;;;;;;;;;4993579;28;20089;-86
2021/05/22 06:48:55;;;;;;;4.18;1.10;;;;;;;;;;4993695;28;20065;-85
2021/05/22 06:51:23;;;;;;;7.60;1.58;;;;;;;;;;5009523;28;20460;-86
2021/05/22 06:53:50;;;;;;;5.45;1.77;;;;;;;;;;5009098;28;20081;-83
2021/05/22 06:56:17;;;;;;;9.85;1.50;;;;;;;;;;4999160;28;20466;-85
2021/05/22 06:58:44;;;;;;;8.45;1.33;;;;;;;;;;4991301;28;20050;-83
2021/05/22 07:01:12;;;;;;;6.72;1.42;;;;;;;;;;4992405;28;20492;-84
2021/05/22 07:03:39;;;;;;;6.13;1.70;;;;;;;;;;4989744;28;20849;-84
2021/05/22 07:06:11;;;;;;;5.40;1.23;;;;;;;;;;4990528;28;20081;-83
2021/05/22 07:08:40;;;;;;;9.13;1.70;;;;;;;;;;4990704;28;20455;-83
2021/05/22 07:11:08;;;;;;;6.05;1.50;;;;;;;;;;4988835;28;20038;-83
2021/05/22 07:13:35;;;;;;;4.45;1.55;;;;;;;;;;4990546;28;20664;-83
2021/05/22 07:16:04;;;;;;;3.80;1.17;;;;;;;;;;4992133;28;20042;-83
2021/05/22 07:18:31;;;;;;;6.95;1.27;;;;;;;;;;4986737;28;20171;-83
2021/05/22 07:20:59;;;;;;;9.15;1.95;;;;;;;;;;4984682;28;20050;-83
2021/05/22 07:23:26;;;;;;;4.07;1.35;;;;;;;;;;4986048;28;20054;-83
2021/05/22 07:25:54;;;;;;;6.43;1.83;;;;;;;;;;4990670;28;20054;-83
2021/05/22 07:28:21;;;;;;;8.40;1.67;;;;;;;;;;4990840;28;20104;-83
2021/05/22 07:30:48;;;;;;;2.70;1.35;;;;;;;;;;4992728;28;20054;-83
2021/05/22 07:33:17;;;;;;;4.40;1.50;;;;;;;;;;4986830;28;20086;-83
2021/05/22 07:35:44;;;;;;;4.78;1.38;;;;;;;;;;4972934;28;20767;-83
2021/05/22 07:38:11;;;;;;;5.55;1.58;;;;;;;;;;4970855;28;20129;-83
2021/05/22 07:40:39;;;;;;;6.25;1.33;;;;;;;;;;4976017;28;20047;-87
2021/05/22 07:43:07;;;;;;;9.52;1.20;;;;;;;;;;4991395;28;20086;-86
2021/05/22 07:45:35;;;;;;;6.10;1.52;;;;;;;;;;4981689;28;20078;-88
2021/05/22 07:48:03;;;;;;;6.50;1.67;;;;;;;;;;4972966;28;20082;-88
2021/05/22 07:50:31;;;;;;;6.28;1.33;;;;;;;;;;4972503;28;20043;-88
2021/05/22 07:52:58;;;;;;;6.57;1.58;;;;;;;;;;4973043;28;20105;-88
2021/05/22 07:55:26;;;;;;;4.30;1.30;;;;;;;;;;4972920;28;20492;-89
2021/05/22 07:57:53;;;;;;;5.75;1.73;;;;;;;;;;4987830;28;20134;-89
2021/05/22 08:00:20;;;;;;;5.68;1.98;;;;;;;;;;4989952;28;20075;-89
2021/05/22 08:02:47;;;;;;;4.18;1.27;;;;;;;;;;4971388;28;20470;-89
2021/05/22 08:05:15;;;;;;;3.78;1.27;;;;;;;;;;4971088;28;20400;-88
2021/05/22 08:07:43;;;;;;;8.18;1.67;;;;;;;;;;4969993;28;20055;-87
2021/05/22 08:10:11;;;;;;;8.35;1.60;;;;;;;;;;4969777;28;20456;-88
2021/05/22 08:12:38;;;;;;;6.70;1.48;;;;;;;;;;4952084;29;20047;-88
2021/05/22 08:15:06;;;;;;;5.18;1.10;;;;;;;;;;4953210;29;20063;-87
2021/05/22 08:17:33;;;;;;;5.13;1.60;;;;;;;;;;4979313;28;20655;-89
2021/05/22 08:20:00;;;;;;;3.67;1.25;;;;;;;;;;4991451;28;20101;-89
2021/05/22 08:22:28;;;;;;;7.00;1.27;;;;;;;;;;4993002;28;20058;-88
2021/05/22 08:24:56;;;;;;;13.43;1.67;;;;;;;;;;4992627;28;20128;-87
2021/05/22 08:27:23;;;;;;;4.75;1.13;;;;;;;;;;4979053;28;20109;-90
2021/05/22 08:29:54;;;;;;;7.68;1.52;;;;;;;;;;4974104;28;20388;-89
2021/05/22 08:32:22;;;;;;;5.57;1.33;;;;;;;;;;4972540;28;20431;-87
2021/05/22 08:34:49;;;;;;;4.05;0.80;;;;;;;;;;4987914;28;20042;-87
2021/05/22 08:37:20;;;;;;;11.45;1.48;;;;;;;;;;4986001;28;20077;-86
2021/05/22 08:39:49;;;;;;;3.95;1.25;;;;;;;;;;4986844;28;20133;-86
2021/05/22 08:42:24;;;;;;;4.15;1.08;;;;;;;;;;4972983;28;20093;-86
2021/05/22 08:44:54;;;;;;;6.93;1.73;;;;;;;;;;4987363;28;20043;-85
2021/05/22 08:47:22;;;;;;;1.52;0.70;;;;;;;;;;4986838;28;20896;-86
2021/05/22 08:49:49;;;;;;;5.85;1.08;;;;;;;;;;4986699;28;20051;-84
2021/05/22 08:52:23;;;;;;;5.38;1.35;;;;;;;;;;4971990;28;20134;-86
2021/05/22 08:54:51;;;;;;;5.60;1.23;;;;;;;;;;4961202;28;20043;-82
2021/05/22 08:57:18;;;;;;;2.85;0.70;;;;;;;;;;4985702;28;20298;-81
2021/05/22 08:59:47;;;;;;;14.27;1.20;;;;;;;;;;4984649;28;20043;-82
2021/05/22 09:02:17;;;;;;;2.60;1.00;;;;;;;;;;4969535;28;20050;-80
2021/05/22 09:05:03;;;;;;;2.75;0.90;;;;;;;;;;4980310;28;20106;-83
2021/05/22 09:07:31;;;;;;;4.03;0.57;;;;;;;;;;4985217;28;20105;-83
2021/05/22 09:10:09;;;;;;;4.03;1.25;;;;;;;;;;4970413;28;20618;-83
2021/05/22 09:12:37;;;;;;;3.05;0.80;;;;;;;;;;4968051;28;20524;-80
2021/05/22 09:15:09;;;;;;;2.38;0.60;;;;;;;;;;4967924;28;20078;-80
2021/05/22 09:17:50;;;;;;;2.60;0.80;;;;;;;;;;4986147;28;20061;-79
2021/05/22 09:20:23;;;;;;;4.47;0.73;;;;;;;;;;4981039;28;20055;-78
2021/05/22 09:22:58;;;;;;;3.60;0.60;;;;;;;;;;4968523;28;20074;-84
2021/05/22 09:25:30;;;;;;;2.22;0.60;;;;;;;;;;4968868;28;20101;-83
2021/05/22 09:27:59;;;;;;;7.78;1.27;;;;;;;;;;4985908;28;20047;-82
2021/05/22 09:30:28;;;;;;;6.82;0.60;;;;;;;;;;4976351;28;20082;-83
2021/05/22 09:32:57;;;;;;;3.25;0.57;;;;;;;;;;4987335;28;20046;-83
2021/05/22 09:35:26;;;;;;;8.18;1.30;;;;;;;;;;4990148;28;20084;-83
2021/05/22 09:38:01;;;;;;;3.92;1.20;;;;;;;;;;4973321;28;20109;-83
2021/05/22 09:40:31;;;;;;;3.17;0.88;;;;;;;;;;4970905;28;20054;-84
2021/05/22 09:43:04;;;;;;;2.28;0.63;;;;;;;;;;4926393;28;20046;-83
2021/05/22 09:45:37;;;;;;;4.47;0.70;;;;;;;;;;4966375;28;20074;-83
2021/05/22 09:48:14;;;;;;;6.63;0.77;;;;;;;;;;4926009;28;20055;-82
2021/05/22 09:50:47;;;;;;;10.25;0.68;;;;;;;;;;4965752;28;20535;-83
2021/05/22 09:53:27;;;;;;;7.57;0.77;;;;;;;;;;4973060;28;20053;-83
2021/05/22 09:56:08;;;;;;;1.73;0.80;;;;;;;;;;4980720;28;20128;-84
2021/05/22 09:58:37;;;;;;;9.73;2.70;;;;;;;;;;4988679;28;20137;-83
2021/05/22 10:01:07;;;;;;;7.50;0.80;;;;;;;;;;4983399;28;20078;-82
2021/05/22 10:03:34;;;;;;;4.18;0.70;;;;;;;;;;4980556;28;20959;-82
2021/05/22 10:06:01;;;;;;;3.03;0.85;;;;;;;;;;4974564;28;20054;-82
2021/05/22 10:08:29;;;;;;;6.63;0.60;;;;;;;;;;4977773;28;20154;-82
2021/05/22 10:10:57;;;;;;;7.60;1.38;;;;;;;;;;4983689;28;20089;-83
2021/05/22 10:13:26;;;;;;;4.88;0.80;;;;;;;;;;4979041;28;20051;-82
2021/05/22 10:15:56;;;;;;;4.97;0.88;;;;;;;;;;4964654;28;20054;-80
2021/05/22 10:18:24;;;;;;;3.72;0.80;;;;;;;;;;4973969;28;20097;-81
2021/05/22 10:20:53;;;;;;;4.88;0.80;;;;;;;;;;4983352;28;20057;-78
2021/05/22 10:23:23;;;;;;;6.28;0.82;;;;;;;;;;4976737;28;20042;-79
2021/05/22 10:25:51;;;;;;;8.10;0.95;;;;;;;;;;4975425;28;20047;-80
2021/05/22 10:28:18;;;;;;;8.23;1.05;;;;;;;;;;4979340;28;20844;-83
2021/05/22 10:30:46;;;;;;;7.50;1.08;;;;;;;;;;4986015;28;20116;-86
2021/05/22 10:33:18;;;;;;;4.88;1.02;;;;;;;;;;4990051;28;20069;-83
2021/05/22 10:35:48;;;;;;;2.92;0.63;;;;;;;;;;4992110;28;20499;-85
2021/05/22 10:38:33;;;;;;;3.15;0.70;;;;;;;;;;4994630;28;20096;-84
2021/05/22 10:41:01;;;;;;;5.45;0.70;;;;;;;;;;4985537;28;20078;-84
2021/05/22 10:43:50;;;;;;;3.85;0.90;;;;;;;;;;4991939;28;20125;-84
2021/05/22 10:46:21;;;;;;;5.07;0.98;;;;;;;;;;4991585;28;20715;-85
2021/05/22 10:48:50;;;;;;;3.30;0.90;;;;;;;;;;4987340;28;20136;-82
2021/05/22 10:51:35;;;;;;;2.15;0.47;;;;;;;;;;4992455;28;20133;-86
2021/05/22 10:54:06;;;;;;;16.33;1.20;;;;;;;;;;4991745;28;20089;-82
2021/05/22 10:56:56;;;;;;;2.47;0.80;;;;;;;;;;4989964;28;20129;-82
2021/05/22 10:59:23;;;;;;;3.22;0.70;;;;;;;;;;4985242;28;20069;-80
2021/05/22 11:01:52;;;;;;;7.05;1.35;;;;;;;;;;4986990;28;20128;-80
2021/05/22 11:04:23;;;;;;;4.95;1.52;;;;;;;;;;4985125;28;20133;-80
2021/05/22 11:06:52;;;;;;;3.97;0.98;;;;;;;;;;4984816;28;20078;-81
2021/05/22 11:09:30;;;;;;;2.63;0.88;;;;;;;;;;4986860;28;20062;-81
2021/05/22 11:12:03;;;;;;;4.55;1.55;;;;;;;;;;4983957;28;20085;-81
2021/05/22 11:14:35;;;;;;;3.60;0.70;;;;;;;;;;4989747;28;20046;-81
2021/05/22 11:17:26;;;;;;;1.77;0.50;;;;;;;;;;4991084;28;20109;-82
2021/05/22 11:19:59;;;;;;;4.47;0.60;;;;;;;;;;4983918;28;20087;-80
2021/05/22 11:22:34;;;;;;;11.07;1.63;;;;;;;;;;4989686;28;20141;-80
2021/05/22 11:25:12;;;;;;;8.30;1.20;;;;;;;;;;4988162;28;20081;-80
2021/05/22 11:27:46;;;;;;;5.82;1.73;;;;;;;;;;4985277;28;20105;-80
2021/05/22 11:30:17;;;;;;;5.65;1.67;;;;;;;;;;4982429;28;20962;-80
2021/05/22 11:33:02;;;;;;;7.60;1.13;;;;;;;;;;4975732;28;20050;-80
2021/05/22 11:35:35;;;;;;;10.85;1.33;;;;;;;;;;4976238;28;20065;-81
2021/05/22 11:38:14;;;;;;;5.97;0.90;;;;;;;;;;4981996;28;20046;-81
2021/05/22 11:41:04;;;;;;;1.80;0.90;;;;;;;;;;4994689;28;20781;-81
2021/05/22 11:43:39;;;;;;;6.70;0.80;;;;;;;;;;4983206;28;20637;-82
2021/05/22 11:46:10;;;;;;;4.78;0.70;;;;;;;;;;4978489;28;20073;-81
2021/05/22 11:48:40;;;;;;;7.43;1.00;;;;;;;;;;4982525;28;20058;-81
2021/05/22 11:51:09;;;;;;;3.13;0.75;;;;;;;;;;4979072;28;20109;-81
2021/05/22 11:53:38;;;;;;;3.80;0.65;;;;;;;;;;4993441;28;20137;-81
2021/05/22 11:56:08;;;;;;;0.80;0.50;;;;;;;;;;4978611;28;20043;-81
2021/05/22 11:58:36;;;;;;;3.70;1.08;;;;;;;;;;4981746;28;20101;-81
2021/05/22 12:01:23;;;;;;;4.65;0.70;;;;;;;;;;4985009;28;20051;-81
2021/05/22 12:03:53;;;;;;;4.88;0.90;;;;;;;;;;4969098;28;20043;-81
2021/05/22 12:06:34;;;;;;;2.08;0.68;;;;;;;;;;4974716;28;20125;-81
2021/05/22 12:09:01;;;;;;;7.85;0.95;;;;;;;;;;4972284;28;20054;-82
2021/05/22 12:11:31;;;;;;;4.40;0.55;;;;;;;;;;4974108;28;20109;-79
2021/05/22 12:14:00;;;;;;;4.30;0.68;;;;;;;;;;4980970;28;20088;-78
2021/05/22 12:16:28;;;;;;;6.22;0.77;;;;;;;;;;4976176;28;20101;-79
2021/05/22 12:18:55;;;;;;;1.20;0.63;;;;;;;;;;4976762;28;20117;-78
2021/05/22 12:21:27;;;;;;;1.13;0.50;;;;;;;;;;4976039;28;20066;-78
2021/05/22 12:24:00;;;;;;;2.88;0.57;;;;;;;;;;4977075;28;20134;-78
2021/05/22 12:26:28;;;;;;;2.95;0.70;;;;;;;;;;4977873;28;20059;-80
2021/05/22 12:28:55;;;;;;;3.88;1.20;;;;;;;;;;4972696;28;20055;-80
2021/05/22 12:31:22;;;;;;;2.42;0.80;;;;;;;;;;4979838;28;20058;-85
2021/05/22 12:34:11;;;;;;;4.53;0.85;;;;;;;;;;4981341;28;20142;-88
2021/05/22 12:36:55;;;;;;;17.88;2.08;;;;;;;;;;4981632;28;20487;-83
2021/05/22 12:39:22;;;;;;;4.20;0.98;;;;;;;;;;4992267;28;20080;-88
2021/05/22 12:41:49;;;;;;;4.88;1.42;;;;;;;;;;4982350;28;20055;-85
2021/05/22 12:44:23;;;;;;;5.65;0.88;;;;;;;;;;4975765;28;20286;-85
2021/05/22 12:46:54;;;;;;;4.60;0.90;;;;;;;;;;4975377;28;20093;-87
2021/05/22 12:49:31;;;;;;;2.10;0.77;;;;;;;;;;4975529;28;20467;-85
2021/05/22 12:52:03;;;;;;;6.53;1.20;;;;;;;;;;4977897;28;20050;-86
2021/05/22 12:54:37;;;;;;;5.82;0.95;;;;;;;;;;4975766;28;20482;-86
2021/05/22 12:57:08;;;;;;;1.90;0.60;;;;;;;;;;4953261;28;20052;-86
2021/05/22 12:59:36;;;;;;;4.90;0.90;;;;;;;;;;4976501;28;20055;-85
2021/05/22 13:02:22;;;;;;;3.42;0.60;;;;;;;;;;4979180;28;20038;-85
2021/05/22 13:04:51;;;;;;;5.60;0.82;;;;;;;;;;4976557;28;20138;-86
2021/05/22 13:07:21;;;;;;;8.75;1.73;;;;;;;;;;4972960;28;20856;-85
2021/05/22 13:09:56;;;;;;;4.18;0.80;;;;;;;;;;4986007;28;20125;-85
2021/05/22 13:12:24;;;;;;;3.58;1.25;;;;;;;;;;4975269;28;20078;-85
2021/05/22 13:14:59;;;;;;;1.02;0.50;;;;;;;;;;4991038;28;20042;-84
2021/05/22 13:17:27;;;;;;;4.15;0.90;;;;;;;;;;4988189;28;20066;-85
2021/05/22 13:19:56;;;;;;;1.23;0.73;;;;;;;;;;4979596;28;20121;-85
2021/05/22 13:22:34;;;;;;;2.80;0.60;;;;;;;;;;4980439;28;20543;-85
2021/05/22 13:25:13;;;;;;;3.67;0.82;;;;;;;;;;4988730;28;20105;-84
2021/05/22 13:27:59;;;;;;;5.75;2.20;;;;;;;;;;4994231;28;20546;-84
2021/05/22 13:30:27;;;;;;;2.00;0.60;;;;;;;;;;4967553;28;20102;-88
2021/05/22 13:32:55;;;;;;;2.55;0.77;;;;;;;;;;4982487;28;20046;-83
2021/05/22 13:35:25;;;;;;;1.90;0.60;;;;;;;;;;4994372;28;20046;-84
2021/05/22 13:37:57;;;;;;;1.27;0.57;;;;;;;;;;4992094;28;20050;-85
2021/05/22 13:40:28;;;;;;;2.50;1.52;;;;;;;;;;4993804;28;20101;-81
2021/05/22 13:42:56;;;;;;;2.55;0.70;;;;;;;;;;4990641;28;20554;-80
2021/05/22 13:45:23;;;;;;;1.70;0.70;;;;;;;;;;4992426;28;20474;-83
2021/05/22 13:47:52;;;;;;;5.97;0.80;;;;;;;;;;4992952;28;20129;-83
2021/05/22 13:50:24;;;;;;;4.05;0.88;;;;;;;;;;4992439;28;20635;-82
2021/05/22 13:52:52;;;;;;;1.67;0.65;;;;;;;;;;4987905;28;20089;-81
2021/05/22 13:55:20;;;;;;;1.83;0.73;;;;;;;;;;4992823;28;20050;-84
2021/05/22 13:57:50;;;;;;;2.50;0.60;;;;;;;;;;4991725;28;20450;-82
2021/05/22 14:00:18;;;;;;;3.08;0.95;;;;;;;;;;4994677;28;20054;-82
2021/05/22 14:02:48;;;;;;;3.75;0.80;;;;;;;;;;4991276;28;20121;-80
2021/05/22 14:05:15;;;;;;;1.15;0.50;;;;;;;;;;4989800;28;20133;-80
2021/05/22 14:07:45;;;;;;;1.52;0.60;;;;;;;;;;4992570;28;20507;-84
2021/05/22 14:10:18;;;;;;;1.40;0.40;;;;;;;;;;4987809;28;20092;-82
2021/05/22 14:12:47;;;;;;;1.58;0.55;;;;;;;;;;4992211;28;20073;-82
2021/05/22 14:15:15;;;;;;;2.88;0.80;;;;;;;;;;4988517;28;20597;-82
2021/05/22 14:17:50;;;;;;;1.02;0.60;;;;;;;;;;4993738;28;20051;-81
2021/05/22 14:20:20;;;;;;;4.43;0.60;;;;;;;;;;4972834;28;20094;-83
2021/05/22 14:22:49;;;;;;;2.75;0.65;;;;;;;;;;4990978;28;20046;-81
2021/05/22 14:25:18;;;;;;;3.10;0.65;;;;;;;;;;4986557;28;20543;-80
2021/05/22 14:27:45;;;;;;;2.40;0.52;;;;;;;;;;4983532;28;20082;-78
2021/05/22 14:30:35;;;;;;;1.27;0.70;;;;;;;;;;4985412;28;20050;-81
2021/05/22 14:33:05;;;;;;;7.43;0.90;;;;;;;;;;4952690;28;20070;-81
2021/05/22 14:35:34;;;;;;;3.80;0.80;;;;;;;;;;4982003;28;20465;-81
2021/05/22 14:38:01;;;;;;;6.45;0.50;;;;;;;;;;4978365;28;20049;-82
2021/05/22 14:40:29;;;;;;;2.50;0.73;;;;;;;;;;4985255;28;20396;-84
2021/05/22 14:42:56;;;;;;;1.70;0.70;;;;;;;;;;4987355;28;20086;-84
2021/05/22 14:45:29;;;;;;;2.80;0.60;;;;;;;;;;4987882;28;20098;-84
2021/05/22 14:47:58;;;;;;;12.35;1.15;;;;;;;;;;4985465;28;20848;-86
2021/05/22 14:50:25;;;;;;;2.08;0.50;;;;;;;;;;4972803;28;20685;-84
2021/05/22 14:52:53;;;;;;;6.70;0.80;;;;;;;;;;4985759;28;20142;-84
2021/05/22 14:55:20;;;;;;;3.17;0.57;;;;;;;;;;4984411;28;20158;-81